Time;durP1;ratioP1;P1;durP2;ratioP2;P2;SDS_P1;SDS_P2;PMS_P1;PMS_P2;Temp;Humidity;BMP_temperature;BMP_pressure;BME280_temperature;BME280_humidity;BME280_pressure;Samples;Min_cycle;Max_cycle;Signal;HPM_P1;HPM_P2
2021/01/24 00:03:00;;;;;;;102.82;22.27;;;;;;;3.92;70.78;98591.59;10503578;28;20151;-49
2021/01/24 00:08:02;;;;;;;279.33;43.22;;;;;;;3.90;71.57;98593.47;10507086;28;20504;-53
2021/01/24 00:13:04;;;;;;;172.90;29.00;;;;;;;3.98;70.75;98593.75;10505273;28;20049;-52
2021/01/24 00:18:07;;;;;;;113.18;19.98;;;;;;;3.89;70.73;98587.47;10504837;28;20193;-49
2021/01/24 00:23:09;;;;;;;227.53;34.13;;;;;;;3.77;71.31;98577.16;10502680;28;20067;-54
2021/01/24 00:28:10;;;;;;;209.95;33.85;;;;;;;3.76;71.03;98578.09;10502398;28;20083;-49
2021/01/24 00:33:13;;;;;;;164.20;30.30;;;;;;;3.84;71.23;98583.53;10501648;28;20056;-51
2021/01/24 00:38:14;;;;;;;152.50;23.63;;;;;;;3.88;70.95;98579.78;10502135;28;20465;-50
2021/01/24 00:43:16;;;;;;;222.82;31.92;;;;;;;3.75;70.73;98584.22;10501782;28;20086;-49
2021/01/24 00:48:19;;;;;;;344.05;52.55;;;;;;;3.75;71.55;98584.22;10473394;28;20049;-50
2021/01/24 00:53:20;;;;;;;264.40;37.78;;;;;;;3.93;70.86;98588.03;10459520;28;20061;-51
2021/01/24 00:58:22;;;;;;;138.88;27.65;;;;;;;3.99;70.56;98584.97;10459706;28;20056;-51
2021/01/24 01:03:25;;;;;;;174.68;26.52;;;;;;;3.92;70.90;98583.81;10459772;28;20049;-49
2021/01/24 01:08:26;;;;;;;162.43;30.15;;;;;;;3.82;70.60;98580.25;10459313;28;20401;-53
2021/01/24 01:13:28;;;;;;;120.00;23.42;;;;;;;3.88;70.91;98574.59;10459486;28;20561;-50
2021/01/24 01:18:31;;;;;;;134.43;25.50;;;;;;;3.93;70.81;98578.47;10459837;28;20470;-51
2021/01/24 01:23:32;;;;;;;192.43;32.78;;;;;;;3.96;70.49;98581.78;10460125;28;20059;-50
2021/01/24 01:28:34;;;;;;;176.35;30.55;;;;;;;3.97;70.56;98573.03;10460361;28;20052;-51
2021/01/24 01:33:36;;;;;;;180.02;30.55;;;;;;;4.00;70.80;98570.19;10459101;28;20135;-49
2021/01/24 01:38:38;;;;;;;140.00;27.58;;;;;;;3.87;70.30;98568.53;10460146;28;20175;-51
2021/01/24 01:43:40;;;;;;;263.15;39.85;;;;;;;3.64;70.93;98572.06;10458375;28;20055;-51
2021/01/24 01:48:43;;;;;;;252.93;40.42;;;;;;;3.76;70.85;98580.72;10458937;28;20404;-51
2021/01/24 01:53:45;;;;;;;193.18;29.08;;;;;;;3.89;71.21;98587.47;10458692;28;20049;-52
2021/01/24 01:58:47;;;;;;;211.10;31.45;;;;;;;3.85;70.87;98587.81;10461630;28;20143;-50
2021/01/24 02:03:58;;;;;;;186.93;29.17;;;;;;;3.65;70.67;98589.28;10466479;28;20057;-51
2021/01/24 02:09:07;;;;;;;185.90;29.88;;;;;;;3.59;71.75;98600.97;10470598;28;20045;-53
2021/01/24 02:14:18;;;;;;;165.70;24.45;;;;;;;3.74;71.54;98604.19;10466707;28;20049;-51
2021/01/24 02:19:26;;;;;;;239.02;35.47;;;;;;;3.71;71.17;98601.84;10466055;28;20137;-50
2021/01/24 02:24:34;;;;;;;150.07;27.58;;;;;;;3.62;71.07;98595.53;10466067;28;20045;-51
2021/01/24 02:29:56;;;;;;;143.65;25.38;;;;;;;3.70;71.30;98597.59;10466299;28;20144;-50
2021/01/24 02:35:00;;;;;;;177.68;28.63;;;;;;;3.77;71.05;98597.94;10465242;28;20049;-57
2021/01/24 02:40:04;;;;;;;210.70;31.15;;;;;;;3.68;71.14;98597.69;10465752;28;20049;-50
2021/01/24 02:45:07;;;;;;;191.70;30.35;;;;;;;3.79;71.04;98598.69;10464932;28;20052;-50
2021/01/24 02:50:12;;;;;;;193.52;28.58;;;;;;;3.83;70.75;98598.31;10464882;28;20053;-50
2021/01/24 02:55:14;;;;;;;148.45;23.30;;;;;;;3.71;70.88;98599.22;10464108;28;20451;-52
2021/01/24 03:00:17;;;;;;;159.50;27.23;;;;;;;3.54;70.67;98610.88;10464379;28;20115;-52
2021/01/24 03:05:20;;;;;;;198.95;27.60;;;;;;;3.63;71.53;98610.22;10463842;28;20045;-49
2021/01/24 03:10:22;;;;;;;128.17;20.27;;;;;;;3.51;71.13;98607.66;10463527;28;20076;-49
2021/01/24 03:15:24;;;;;;;107.80;18.05;;;;;;;3.42;71.31;98599.63;10463351;28;20640;-52
2021/01/24 03:20:28;;;;;;;182.68;25.88;;;;;;;3.35;71.32;98602.78;10463235;28;20045;-50
2021/01/24 03:25:30;;;;;;;;;;;;;;;3.43;71.69;98592.66;10464186;28;20057;-52
2021/01/24 03:30:33;;;;;;;267.15;35.88;;;;;;;3.43;71.27;98592.66;10463442;28;19929;-50
2021/01/24 03:35:36;;;;;;;176.88;26.05;;;;;;;3.45;71.32;98588.19;10466604;28;20542;-51
2021/01/24 03:40:38;;;;;;;135.30;24.17;;;;;;;3.52;71.28;98591.16;10503158;28;20121;-49
2021/01/24 03:45:39;;;;;;;196.90;29.95;;;;;;;3.47;71.13;98591.47;10505512;28;20132;-50
2021/01/24 03:50:42;;;;;;;142.88;25.55;;;;;;;3.47;71.24;98591.47;10504490;28;20053;-52
2021/01/24 03:55:44;;;;;;;196.85;25.65;;;;;;;3.58;71.54;98593.28;10503417;28;20131;-51
2021/01/24 04:00:45;;;;;;;89.00;13.63;;;;;;;3.48;71.28;98593.16;10503563;28;20052;-57
2021/01/24 04:05:48;;;;;;;162.07;23.25;;;;;;;3.30;71.47;98594.50;10508335;28;20048;-55
2021/01/24 04:10:50;;;;;;;166.70;23.08;;;;;;;3.19;71.65;98597.88;10504746;28;20419;-51
2021/01/24 04:15:52;;;;;;;213.82;32.22;;;;;;;3.10;71.51;98594.16;10503965;28;20093;-49
2021/01/24 04:20:54;;;;;;;231.52;28.48;;;;;;;3.14;72.01;98593.03;10502431;28;20143;-58
2021/01/24 04:25:56;;;;;;;36.53;6.70;;;;;;;3.12;71.56;98587.09;10504533;28;20044;-50
2021/01/24 04:30:58;;;;;;;261.27;32.30;;;;;;;3.02;71.90;98590.44;10502325;28;20110;-51
2021/01/24 04:36:00;;;;;;;196.27;28.65;;;;;;;3.09;71.68;98582.13;10502314;28;20223;-48
2021/01/24 04:41:02;;;;;;;332.45;43.30;;;;;;;3.14;71.55;98579.19;10501454;28;20139;-50
2021/01/24 04:46:04;;;;;;;557.42;71.57;;;;;;;3.29;71.74;98587.63;10501931;28;20131;-51
2021/01/24 04:51:07;;;;;;;210.65;28.20;;;;;;;3.33;71.39;98586.50;10504457;28;20142;-51
2021/01/24 04:56:09;;;;;;;210.00;28.88;;;;;;;3.39;70.89;98588.63;10502430;28;20480;-51
2021/01/24 05:01:12;;;;;;;224.23;31.13;;;;;;;3.44;71.31;98595.13;10501296;28;20067;-49
2021/01/24 05:06:14;;;;;;;208.67;29.60;;;;;;;3.40;71.13;98596.31;10501456;28;20071;-52
2021/01/24 05:11:16;;;;;;;67.38;11.10;;;;;;;3.36;70.65;98594.06;10502458;28;20044;-50
2021/01/24 05:16:21;;;;;;;189.75;26.25;;;;;;;3.16;70.99;98601.50;10501069;28;20044;-51
2021/01/24 05:21:26;;;;;;;260.42;34.67;;;;;;;3.23;71.85;98602.75;10499986;28;20143;-52
2021/01/24 05:26:28;;;;;;;196.85;29.25;;;;;;;3.23;71.55;98604.47;10502159;28;20040;-50
2021/01/24 05:31:31;;;;;;;229.88;28.40;;;;;;;3.19;71.69;98598.69;10499821;28;20058;-52
2021/01/24 05:36:41;;;;;;;218.45;30.48;;;;;;;3.18;71.41;98606.59;10499975;28;20041;-55
2021/01/24 05:41:47;;;;;;;167.90;24.17;;;;;;;3.25;71.53;98613.00;10500842;28;20144;-49
2021/01/24 05:46:50;;;;;;;214.90;28.15;;;;;;;3.21;71.66;98607.22;10500422;28;20051;-57
2021/01/24 05:52:04;;;;;;;303.27;38.58;;;;;;;3.18;71.62;98617.81;10499742;28;20213;-50
2021/01/24 05:57:06;;;;;;;325.10;42.72;;;;;;;3.38;71.68;98615.53;10500519;28;20481;-52
2021/01/24 06:02:08;;;;;;;194.18;22.63;;;;;;;3.35;70.89;98615.75;10501146;28;20063;-50
2021/01/24 06:07:10;;;;;;;246.15;32.00;;;;;;;3.29;71.81;98621.41;10503951;28;20138;-57
2021/01/24 06:12:15;;;;;;;216.95;31.10;;;;;;;3.37;71.61;98622.50;10502205;28;20049;-51
2021/01/24 06:17:29;;;;;;;151.52;23.77;;;;;;;3.49;71.32;98633.78;10499380;28;20058;-58
2021/01/24 06:22:38;;;;;;;160.97;19.97;;;;;;;3.50;71.01;98629.41;10498496;28;20040;-54
2021/01/24 06:27:46;;;;;;;154.15;22.13;;;;;;;3.32;71.05;98631.56;10499571;28;20298;-51
2021/01/24 06:32:48;;;;;;;244.30;29.10;;;;;;;3.37;71.44;98647.66;10499020;28;20201;-49
2021/01/24 06:38:00;;;;;;;135.75;24.52;;;;;;;3.43;71.68;98642.00;10500015;28;20052;-52
2021/01/24 06:43:03;;;;;;;159.73;22.33;;;;;;;3.43;70.99;98637.66;10499535;28;20556;-49
2021/01/24 06:48:06;;;;;;;187.23;25.90;;;;;;;3.34;71.71;98648.69;10506736;28;20131;-51
2021/01/24 06:53:10;;;;;;;189.18;26.98;;;;;;;3.39;71.49;98656.19;10506217;28;20048;-50
2021/01/24 06:58:29;;;;;;;167.63;25.27;;;;;;;3.56;71.92;98660.97;10505057;28;20431;-49
2021/01/24 07:03:31;;;;;;;125.30;17.05;;;;;;;3.46;71.54;98657.38;10505846;28;20117;-53
2021/01/24 07:08:33;;;;;;;150.85;21.90;;;;;;;3.40;71.17;98661.25;10506401;28;20394;-50
2021/01/24 07:13:36;;;;;;;130.77;22.73;;;;;;;3.37;71.62;98664.06;10505012;28;20058;-49
2021/01/24 07:18:39;;;;;;;70.37;13.40;;;;;;;3.46;71.42;98663.41;10505724;28;20048;-50
2021/01/24 07:23:42;;;;;;;133.35;21.55;;;;;;;3.50;71.68;98658.81;10504488;28;20384;-49
2021/01/24 07:28:44;;;;;;;92.03;15.57;;;;;;;3.44;71.57;98665.28;10504307;28;20072;-51
2021/01/24 07:33:46;;;;;;;342.20;49.75;;;;;;;3.46;71.84;98665.19;10504429;28;20095;-51
2021/01/24 07:38:49;;;;;;;106.53;18.15;;;;;;;3.49;71.23;98667.56;10504539;28;20048;-50
2021/01/24 07:43:51;;;;;;;145.00;22.93;;;;;;;3.54;71.59;98660.25;10503953;28;20045;-51
2021/01/24 07:48:53;;;;;;;59.22;16.23;;;;;;;3.67;71.50;98661.00;10503904;28;20067;-50
2021/01/24 07:53:56;;;;;;;151.65;24.40;;;;;;;3.92;71.59;98664.41;10504415;28;20052;-50
2021/01/24 07:58:58;;;;;;;126.38;21.48;;;;;;;4.09;70.94;98663.94;10503861;28;20135;-53
2021/01/24 08:04:01;;;;;;;171.48;24.58;;;;;;;4.13;70.94;98662.78;10506087;28;20428;-55
2021/01/24 08:09:05;;;;;;;101.87;17.47;;;;;;;4.06;70.83;98660.75;10504094;28;20148;-51
2021/01/24 08:14:06;;;;;;;34.47;9.90;;;;;;;3.90;70.30;98651.50;10504608;28;20326;-49
2021/01/24 08:19:11;;;;;;;64.03;14.27;;;;;;;3.93;70.92;98663.44;10502749;28;20083;-49
2021/01/24 08:24:14;;;;;;;58.78;11.85;;;;;;;3.94;70.56;98657.28;10502582;28;20404;-51
2021/01/24 08:29:15;;;;;;;96.53;17.00;;;;;;;3.90;71.27;98655.88;10503535;28;20392;-49
2021/01/24 08:34:17;;;;;;;95.60;18.23;;;;;;;3.99;71.16;98659.56;10502330;28;20426;-51
2021/01/24 08:39:23;;;;;;;153.45;22.50;;;;;;;3.98;70.92;98647.53;10501528;28;20048;-50
2021/01/24 08:44:24;;;;;;;134.77;19.90;;;;;;;3.92;71.23;98643.59;10501696;28;20113;-49
2021/01/24 08:49:27;;;;;;;73.10;13.48;;;;;;;4.08;70.91;98643.28;10503006;28;20498;-49
2021/01/24 08:54:32;;;;;;;56.03;11.17;;;;;;;4.00;70.90;98643.84;10501575;28;20037;-51
2021/01/24 08:59:34;;;;;;;81.60;16.80;;;;;;;3.99;70.82;98643.97;10501306;28;20057;-49
2021/01/24 09:04:45;;;;;;;75.43;13.85;;;;;;;4.00;70.83;98653.41;10500488;28;20143;-49
2021/01/24 09:09:49;;;;;;;83.97;22.17;;;;;;;4.09;71.34;98655.31;10500368;28;20048;-49
2021/01/24 09:14:50;;;;;;;71.65;16.85;;;;;;;4.13;70.82;98652.41;10501937;28;20048;-49
2021/01/24 09:19:52;;;;;;;53.17;12.20;;;;;;;4.05;70.52;98657.34;10499973;28;20078;-50
2021/01/24 09:24:56;;;;;;;65.30;19.50;;;;;;;3.99;70.72;98650.00;10499816;28;20439;-51
2021/01/24 09:29:58;;;;;;;118.68;21.13;;;;;;;4.10;70.79;98657.81;10499995;28;20045;-51
2021/01/24 09:34:59;;;;;;;67.03;15.88;;;;;;;4.23;71.17;98662.09;10502142;28;20052;-53
2021/01/24 09:40:03;;;;;;;59.42;17.85;;;;;;;4.25;70.59;98660.19;10501440;28;20048;-51
2021/01/24 09:45:05;;;;;;;;;;;;;;;4.31;70.44;98667.53;10500123;28;20044;-50
2021/01/24 09:50:08;;;;;;;63.55;18.30;;;;;;;4.36;70.31;98663.63;10499287;28;19936;-51
2021/01/24 09:55:12;;;;;;;69.88;18.48;;;;;;;4.33;69.99;98663.06;10500169;28;20106;-51
2021/01/24 10:00:14;;;;;;;50.42;15.32;;;;;;;4.29;70.63;98661.63;10502449;28;20366;-49
2021/01/24 10:05:16;;;;;;;64.68;17.83;;;;;;;4.28;70.76;98665.16;10499070;28;20405;-50
2021/01/24 10:10:19;;;;;;;53.55;17.60;;;;;;;4.42;70.80;98654.53;10500604;28;20101;-51
2021/01/24 10:15:20;;;;;;;45.85;15.43;;;;;;;4.53;70.04;98649.34;10498638;28;20392;-50
2021/01/24 10:20:22;;;;;;;65.85;17.60;;;;;;;4.59;70.60;98638.47;10502918;28;20565;-49
2021/01/24 10:25:25;;;;;;;50.45;17.40;;;;;;;4.82;70.41;98641.03;10506829;28;20048;-50
2021/01/24 10:30:26;;;;;;;44.53;16.45;;;;;;;4.89;70.00;98644.81;10506941;28;20044;-51
2021/01/24 10:35:28;;;;;;;58.00;17.52;;;;;;;4.84;69.83;98636.56;10507093;28;20055;-49
2021/01/24 10:40:31;;;;;;;47.97;17.23;;;;;;;4.88;70.16;98627.53;10507770;28;20155;-49
2021/01/24 10:45:33;;;;;;;55.33;18.93;;;;;;;5.00;69.60;98621.38;10506768;28;20056;-51
2021/01/24 10:50:37;;;;;;;102.00;23.48;;;;;;;5.15;69.51;98618.50;10505692;28;20054;-51
2021/01/24 10:55:39;;;;;;;;;;;;;;;5.19;69.49;98619.91;10507924;28;20488;-49
2021/01/24 11:00:41;;;;;;;144.90;26.05;;;;;;;5.37;69.01;98602.78;10506092;28;19924;-50
2021/01/24 11:05:42;;;;;;;138.02;27.92;;;;;;;5.33;69.58;98606.59;10505382;28;20053;-49
2021/01/24 11:10:45;;;;;;;231.63;41.20;;;;;;;5.48;69.78;98607.94;10505350;28;20138;-49
2021/01/24 11:15:47;;;;;;;143.15;30.98;;;;;;;5.57;69.04;98611.56;10505037;28;20037;-49
2021/01/24 11:20:49;;;;;;;80.72;19.95;;;;;;;5.70;68.86;98606.19;10505463;28;20049;-53
2021/01/24 11:25:51;;;;;;;90.15;23.02;;;;;;;5.77;68.86;98604.72;10505694;28;20041;-51
2021/01/24 11:30:53;;;;;;;86.97;24.88;;;;;;;5.66;68.50;98600.38;10504221;28;20098;-49
2021/01/24 11:35:55;;;;;;;86.80;26.90;;;;;;;5.58;69.33;98599.38;10504577;28;20447;-49
2021/01/24 11:40:57;;;;;;;387.00;54.58;;;;;;;5.58;68.71;98599.38;10503913;28;20482;-49
2021/01/24 11:45:59;;;;;;;104.60;28.02;;;;;;;5.56;68.75;98596.06;10506657;28;20041;-51
2021/01/24 11:51:01;;;;;;;216.52;38.65;;;;;;;5.53;68.71;98600.56;10507853;28;20062;-51
2021/01/24 11:56:04;;;;;;;228.13;40.40;;;;;;;5.47;68.39;98608.88;10503944;28;20052;-49
2021/01/24 12:01:07;;;;;;;206.05;38.53;;;;;;;5.41;68.66;98592.94;10503245;28;20098;-50
2021/01/24 12:06:08;;;;;;;229.57;46.03;;;;;;;5.39;68.90;98600.88;10504780;28;20044;-51
2021/01/24 12:11:11;;;;;;;232.48;38.78;;;;;;;5.37;68.74;98597.56;10503852;28;20443;-51
2021/01/24 12:16:13;;;;;;;170.50;36.92;;;;;;;5.36;68.89;98595.06;10503463;28;20048;-51
2021/01/24 12:21:14;;;;;;;159.38;33.40;;;;;;;5.39;69.03;98595.66;10503522;28;20045;-50
2021/01/24 12:26:17;;;;;;;77.45;24.08;;;;;;;5.40;68.92;98589.50;10502496;28;20161;-50
2021/01/24 12:31:19;;;;;;;149.18;31.15;;;;;;;5.44;68.91;98590.88;10503439;28;20139;-49
2021/01/24 12:36:20;;;;;;;71.20;22.60;;;;;;;5.40;68.73;98586.88;10502880;28;20071;-53
2021/01/24 12:41:23;;;;;;;304.85;49.88;;;;;;;5.42;68.45;98599.78;10475098;28;20088;-50
2021/01/24 12:46:25;;;;;;;361.77;53.83;;;;;;;5.37;68.47;98596.75;10501333;28;20131;-49
2021/01/24 12:51:26;;;;;;;290.15;44.80;;;;;;;5.32;68.74;98595.31;10501405;28;20059;-51
2021/01/24 12:56:29;;;;;;;147.98;29.77;;;;;;;5.25;68.44;98582.94;10501462;28;20041;-51
2021/01/24 13:01:30;;;;;;;127.93;30.30;;;;;;;5.24;68.74;98581.28;10500965;28;20056;-49
2021/01/24 13:06:32;;;;;;;167.40;36.33;;;;;;;5.33;68.66;98588.34;10501822;28;20049;-50
2021/01/24 13:11:35;;;;;;;148.13;30.30;;;;;;;5.49;68.28;98580.09;10501080;28;20374;-50
2021/01/24 13:16:36;;;;;;;128.18;31.25;;;;;;;5.56;68.40;98586.47;10500221;28;20488;-50
2021/01/24 13:21:38;;;;;;;192.18;36.75;;;;;;;5.57;68.62;98587.28;10501084;28;20052;-50
2021/01/24 13:26:41;;;;;;;108.97;27.17;;;;;;;5.54;68.35;98580.53;10501634;28;20056;-49
2021/01/24 13:31:43;;;;;;;200.32;38.50;;;;;;;5.44;68.70;98583.06;10501291;28;20059;-51
2021/01/24 13:36:44;;;;;;;165.45;36.30;;;;;;;5.50;68.37;98571.31;10502590;28;20376;-51
2021/01/24 13:41:48;;;;;;;82.20;28.08;;;;;;;5.45;68.22;98574.31;10500613;28;20048;-49
2021/01/24 13:46:49;;;;;;;219.70;38.97;;;;;;;5.49;68.35;98575.72;10503105;28;20051;-55
2021/01/24 13:51:51;;;;;;;159.63;34.08;;;;;;;5.43;68.31;98585.81;10505217;28;20052;-55
2021/01/24 13:56:53;;;;;;;144.73;29.38;;;;;;;5.36;68.34;98572.47;10500506;28;20087;-49
2021/01/24 14:01:55;;;;;;;278.45;47.85;;;;;;;5.23;68.47;98575.25;10499408;28;20056;-51
2021/01/24 14:06:57;;;;;;;187.60;38.55;;;;;;;5.30;68.55;98579.00;10500260;28;20377;-53
2021/01/24 14:11:59;;;;;;;242.20;42.45;;;;;;;5.27;68.94;98581.03;10500319;28;20138;-51
2021/01/24 14:17:01;;;;;;;138.70;34.53;;;;;;;5.25;68.77;98577.72;10499412;28;20040;-56
2021/01/24 14:22:03;;;;;;;242.63;44.20;;;;;;;5.22;68.85;98573.56;10498836;28;20559;-50
2021/01/24 14:27:06;;;;;;;138.45;32.15;;;;;;;5.29;68.30;98585.13;10498730;28;20072;-51
2021/01/24 14:32:07;;;;;;;65.23;22.27;;;;;;;5.29;69.09;98573.91;10498337;28;20131;-51
2021/01/24 14:37:09;;;;;;;239.02;42.10;;;;;;;5.22;69.31;98575.34;10499129;28;20127;-49
2021/01/24 14:42:12;;;;;;;63.85;24.45;;;;;;;5.10;69.13;98574.56;10499063;28;20063;-51
2021/01/24 14:47:13;;;;;;;154.68;32.03;;;;;;;5.14;69.02;98575.13;10498382;28;20089;-49
2021/01/24 14:52:15;;;;;;;242.48;44.92;;;;;;;5.23;69.01;98577.84;10473177;28;20049;-49
2021/01/24 14:57:18;;;;;;;121.10;30.65;;;;;;;5.27;69.12;98568.00;10452879;28;20070;-51
2021/01/24 15:02:21;;;;;;;259.45;48.13;;;;;;;5.23;68.97;98566.59;10455367;28;20056;-51
2021/01/24 15:07:22;;;;;;;104.45;31.55;;;;;;;5.24;69.32;98560.44;10459195;28;20064;-50
2021/01/24 15:12:25;;;;;;;156.35;35.35;;;;;;;5.32;68.70;98573.66;10461970;28;20072;-50
2021/01/24 15:17:27;;;;;;;285.17;45.53;;;;;;;5.39;68.78;98579.19;10462595;28;20132;-50
2021/01/24 15:22:28;;;;;;;439.35;74.07;;;;;;;5.40;68.31;98586.06;10480634;28;20052;-49
2021/01/24 15:27:32;;;;;;;254.25;46.05;;;;;;;5.43;68.53;98585.81;10462602;28;20045;-51
2021/01/24 15:32:34;;;;;;;302.48;54.50;;;;;;;5.43;67.98;98584.03;10462604;28;20048;-50
2021/01/24 15:37:35;;;;;;;328.70;49.03;;;;;;;5.39;67.83;98590.47;10462940;28;20040;-54
2021/01/24 15:42:38;;;;;;;239.35;43.40;;;;;;;5.28;68.64;98580.91;10462518;28;20053;-50
2021/01/24 15:47:40;;;;;;;226.00;47.23;;;;;;;5.41;68.43;98578.09;10467301;28;20052;-49
2021/01/24 15:52:42;;;;;;;401.00;64.47;;;;;;;5.45;68.60;98566.50;10458941;28;20052;-52
2021/01/24 15:57:46;;;;;;;309.17;52.50;;;;;;;5.48;68.47;98581.88;10459629;28;20467;-49
2021/01/24 16:02:47;;;;;;;310.83;51.37;;;;;;;5.54;69.01;98573.56;10459449;28;20068;-50
2021/01/24 16:07:49;;;;;;;138.38;34.03;;;;;;;5.56;68.43;98572.59;10459288;28;20053;-49
2021/01/24 16:12:52;;;;;;;186.93;42.92;;;;;;;5.60;68.28;98574.81;10457860;28;20045;-48
2021/01/24 16:17:54;;;;;;;175.68;38.92;;;;;;;5.56;68.56;98570.00;10457878;28;20056;-50
2021/01/24 16:22:56;;;;;;;161.95;43.17;;;;;;;5.60;68.46;98560.97;10486395;28;20496;-50
2021/01/24 16:27:58;;;;;;;105.68;35.35;;;;;;;5.64;68.86;98542.34;10498744;28;20139;-51
2021/01/24 16:33:00;;;;;;;138.25;37.65;;;;;;;5.59;68.70;98564.53;10499055;28;20109;-50
2021/01/24 16:38:02;;;;;;;101.72;29.27;;;;;;;5.55;69.17;98574.38;10497492;28;20109;-55
2021/01/24 16:43:08;;;;;;;312.13;60.45;;;;;;;5.48;69.21;98561.03;10498389;28;20054;-50
2021/01/24 16:48:10;;;;;;;153.82;35.92;;;;;;;5.48;69.02;98579.28;10470814;28;20243;-49
2021/01/24 16:53:11;;;;;;;112.47;32.78;;;;;;;5.52;68.83;98575.47;10455703;28;20128;-51
2021/01/24 16:58:14;;;;;;;108.05;23.45;;;;;;;5.45;69.50;98587.34;10452623;28;20090;-55
2021/01/24 17:03:17;;;;;;;138.82;29.15;;;;;;;5.31;69.71;98587.63;10454467;28;20095;-50
2021/01/24 17:08:19;;;;;;;136.13;28.63;;;;;;;5.19;69.71;98583.41;10455878;28;20055;-50
2021/01/24 17:13:22;;;;;;;333.58;52.85;;;;;;;5.24;70.14;98576.06;10455428;28;20056;-49
2021/01/24 17:18:24;;;;;;;247.50;39.80;;;;;;;5.22;70.27;98577.97;10455994;28;20057;-50
2021/01/24 17:23:25;;;;;;;435.92;65.25;;;;;;;5.12;69.92;98561.44;10457386;28;20393;-49
2021/01/24 17:28:28;;;;;;;381.42;56.35;;;;;;;5.17;70.77;98567.06;10458109;28;20045;-50
2021/01/24 17:33:30;;;;;;;398.17;63.30;;;;;;;5.18;70.06;98561.75;10458302;28;20128;-49
2021/01/24 17:38:32;;;;;;;370.95;53.65;;;;;;;5.20;70.70;98567.69;10459392;28;20048;-51
2021/01/24 17:43:35;;;;;;;319.85;51.80;;;;;;;5.25;70.63;98570.72;10458275;28;20049;-49
2021/01/24 17:48:37;;;;;;;272.73;43.70;;;;;;;5.27;70.50;98563.63;10458065;28;20058;-49
2021/01/24 17:53:39;;;;;;;272.35;39.92;;;;;;;5.27;70.64;98561.00;10458629;28;20367;-49
2021/01/24 17:58:41;;;;;;;331.80;44.45;;;;;;;5.19;70.46;98552.16;10458417;28;20102;-48
2021/01/24 18:03:44;;;;;;;297.40;46.92;;;;;;;5.14;70.56;98547.34;10457485;28;20060;-50
2021/01/24 18:08:46;;;;;;;571.95;92.15;;;;;;;5.22;70.57;98542.31;10459760;28;20091;-52
2021/01/24 18:13:49;;;;;;;235.45;38.75;;;;;;;5.27;70.28;98537.56;10459145;28;20052;-51
2021/01/24 18:18:51;;;;;;;267.33;40.65;;;;;;;5.32;70.43;98544.97;10459111;28;20144;-49
2021/01/24 18:23:52;;;;;;;289.30;46.60;;;;;;;5.33;70.17;98554.47;10461237;28;20053;-66
2021/01/24 18:28:55;;;;;;;266.33;43.17;;;;;;;5.41;70.29;98546.84;10462396;28;20140;-50
2021/01/24 18:33:57;;;;;;;215.27;35.25;;;;;;;5.35;70.13;98547.34;10454987;28;20102;-49
2021/01/24 18:38:58;;;;;;;131.50;30.70;;;;;;;5.41;70.53;98553.84;10455013;28;20195;-49
2021/01/24 18:44:01;;;;;;;233.25;42.60;;;;;;;5.45;70.58;98553.47;10463540;28;20152;-51
2021/01/24 18:49:03;;;;;;;192.27;36.75;;;;;;;5.54;70.27;98552.72;10463049;28;20053;-50
2021/01/24 18:54:05;;;;;;;242.70;40.95;;;;;;;5.56;69.70;98549.13;10464211;28;20131;-50
2021/01/24 18:59:08;;;;;;;189.35;40.58;;;;;;;5.57;69.66;98556.81;10464569;28;20049;-50
2021/01/24 19:04:10;;;;;;;113.03;32.90;;;;;;;5.58;70.07;98555.06;10463691;28;20556;-51
2021/01/24 19:09:12;;;;;;;130.43;38.45;;;;;;;5.61;69.83;98547.00;10462318;28;20049;-51
2021/01/24 19:14:16;;;;;;;139.53;35.77;;;;;;;5.72;69.68;98547.72;10461046;28;20053;-50
2021/01/24 19:19:17;;;;;;;102.53;31.55;;;;;;;5.74;69.17;98552.81;10460615;28;20040;-50
2021/01/24 19:24:20;;;;;;;119.85;34.95;;;;;;;5.74;69.26;98542.38;10460801;28;20037;-49
2021/01/24 19:29:22;;;;;;;107.10;34.40;;;;;;;5.79;69.16;98535.03;10460954;28;20049;-51
2021/01/24 19:34:24;;;;;;;122.10;36.85;;;;;;;5.87;68.97;98545.63;10461868;28;20048;-51
2021/01/24 19:39:25;;;;;;;85.15;26.33;;;;;;;5.94;69.13;98546.81;10462917;28;20071;-51
2021/01/24 19:44:28;;;;;;;93.55;28.58;;;;;;;5.89;68.62;98543.72;10462452;28;20072;-50
2021/01/24 19:49:30;;;;;;;93.73;32.27;;;;;;;5.85;68.86;98544.09;10461556;28;20190;-54
2021/01/24 19:54:33;;;;;;;101.18;31.48;;;;;;;5.82;69.48;98534.75;10461917;28;20366;-49
2021/01/24 19:59:37;;;;;;;93.67;30.40;;;;;;;5.82;69.77;98539.13;10460962;28;20044;-52
2021/01/24 20:04:39;;;;;;;91.13;33.08;;;;;;;5.89;69.46;98538.50;10459286;28;20395;-50
2021/01/24 20:09:41;;;;;;;105.65;33.88;;;;;;;5.95;69.51;98532.78;10462373;28;20044;-49
2021/01/24 20:14:43;;;;;;;82.80;30.35;;;;;;;6.06;68.62;98536.25;10458750;28;20056;-50
2021/01/24 20:19:45;;;;;;;82.85;30.67;;;;;;;5.94;68.50;98544.19;10456556;28;20052;-51
2021/01/24 20:24:47;;;;;;;95.65;32.28;;;;;;;5.85;68.86;98539.72;10458073;28;20102;-49
2021/01/24 20:29:51;;;;;;;58.00;20.73;;;;;;;5.92;69.37;98540.84;10459501;28;20053;-49
2021/01/24 20:34:56;;;;;;;73.80;26.40;;;;;;;5.87;69.25;98535.19;10458997;28;20048;-50
2021/01/24 20:39:59;;;;;;;70.63;25.98;;;;;;;5.84;69.60;98538.03;10458908;28;20105;-49
2021/01/24 20:45:02;;;;;;;84.87;29.10;;;;;;;5.93;69.76;98542.53;10457609;28;20069;-50
2021/01/24 20:50:05;;;;;;;80.77;27.57;;;;;;;5.97;69.56;98536.09;10455332;28;20049;-51
2021/01/24 20:55:08;;;;;;;66.90;22.88;;;;;;;6.02;69.64;98538.31;10455610;28;20052;-52
2021/01/24 21:00:11;;;;;;;60.72;21.10;;;;;;;5.95;69.60;98540.63;10461130;28;20510;-50
2021/01/24 21:05:14;;;;;;;52.40;20.02;;;;;;;5.88;69.35;98544.69;10456724;28;20151;-49
2021/01/24 21:10:15;;;;;;;45.70;17.80;;;;;;;5.75;69.42;98544.03;10457600;28;20159;-50
2021/01/24 21:15:18;;;;;;;51.83;19.35;;;;;;;5.62;69.54;98538.19;10457821;28;20044;-50
2021/01/24 21:20:20;;;;;;;33.15;12.88;;;;;;;5.60;69.59;98545.31;10457869;28;20057;-49
2021/01/24 21:25:22;;;;;;;40.03;17.48;;;;;;;5.50;69.23;98543.47;10458373;28;20397;-50
2021/01/24 21:30:26;;;;;;;38.38;15.55;;;;;;;5.48;69.70;98540.19;10456525;28;20467;-50
2021/01/24 21:35:28;;;;;;;50.10;18.40;;;;;;;5.45;70.16;98556.06;10454568;28;20047;-50
2021/01/24 21:40:30;;;;;;;41.78;15.00;;;;;;;5.49;69.71;98544.44;10455016;28;20063;-51
2021/01/24 21:45:32;;;;;;;40.47;17.02;;;;;;;5.52;69.83;98548.56;10453787;28;20162;-49
2021/01/24 21:50:34;;;;;;;41.45;15.25;;;;;;;5.53;70.33;98551.03;10455093;28;20438;-52
2021/01/24 21:55:36;;;;;;;51.90;19.48;;;;;;;5.57;70.09;98545.56;10457385;28;20045;-51
2021/01/24 22:00:38;;;;;;;38.80;16.23;;;;;;;5.61;70.30;98544.38;10456924;28;20059;-55
2021/01/24 22:05:40;;;;;;;44.33;19.63;;;;;;;5.63;70.05;98550.28;10455644;28;20068;-50
2021/01/24 22:10:42;;;;;;;36.47;15.35;;;;;;;5.68;69.94;98556.75;10456375;28;20053;-50
2021/01/24 22:15:45;;;;;;;45.60;18.05;;;;;;;5.74;70.00;98547.59;10460527;28;20084;-49
2021/01/24 22:20:46;;;;;;;43.72;16.38;;;;;;;5.78;69.81;98555.03;10462359;28;20388;-49
2021/01/24 22:25:48;;;;;;;47.75;18.88;;;;;;;5.83;70.13;98551.22;10463985;28;20087;-49
2021/01/24 22:30:51;;;;;;;42.00;18.35;;;;;;;5.87;70.01;98556.03;10461238;28;20044;-50
2021/01/24 22:35:53;;;;;;;43.83;15.77;;;;;;;5.88;69.31;98549.91;10461981;28;20041;-49
2021/01/24 22:40:54;;;;;;;45.55;19.00;;;;;;;5.90;69.53;98547.97;10462344;28;20481;-49
2021/01/24 22:45:57;;;;;;;43.13;15.85;;;;;;;5.94;69.35;98543.34;10462854;28;20135;-49
2021/01/24 22:50:58;;;;;;;23.80;10.02;;;;;;;5.89;69.08;98538.50;10463671;28;20049;-50
2021/01/24 22:56:00;;;;;;;37.03;17.27;;;;;;;5.87;69.77;98550.00;10464119;28;20081;-60
2021/01/24 23:01:03;;;;;;;36.33;16.52;;;;;;;5.92;69.23;98546.06;10467281;28;20051;-49